Latest Weather Observations for Mullion

IDN60901

Issued at 8:21 pm EST Friday 12 July 2024 (issued every 10 minutes, with the page automatically refreshed every 10 minutes)

About weather observations | Map of Canberra area stations | Latest observations for Canberra area | Other Formats
Station Details ID: 250070 Name: MULLION (PCS) Lat: -35.11 Lon: 148.85 Height: 750.0 m

Portable automatic weather stations (PAWS) are operated by other organisations, such as Fire and Emergency Services, and are included here by agreement. Portable stations may be deployed to a location for a short period and their location may be subject to change without notice. Wind observations from these stations are provided from heights of either three (3) or ten (10) metres above ground level (AGL).

Data from the previous 72 hours. | See also: Recent months for locations in Aust Capital Territory
Date/Time
EST
Temp
°C
App
Temp
°C
Dew
Point
°C
Rel
Hum
%
Delta-T
°C
Wind Press
QNH
hPa
Press
MSL
hPa
Rain since
9am
mm
Dir  Spd
km/h
Gust
km/h
Spd
kts
Gust
kts
12/08:10pm 6.4 4.2 6.4 100 0.0 SE 7 9 4 5 1014.6 - 0.0
12/08:00pm 7.0 5.5 6.7 98 0.1 SSE 4 6 2 3 1014.5 - 0.0
12/07:50pm 6.9 4.9 6.4 97 0.2 SSE 6 9 3 5 1014.5 - 0.0
12/07:40pm 7.0 4.7 5.5 90 0.7 SSW 7 9 4 5 1014.4 - 0.0
12/07:30pm 6.5 5.7 6.5 100 0.0 CALM 0 2 0 1 1014.3 - 0.0
12/07:20pm 6.4 4.4 6.4 100 0.0 SSE 6 7 3 4 1014.2 - 0.0
12/07:10pm 6.4 4.4 6.4 100 0.0 SE 6 7 3 4 1014.1 - 0.0
12/07:00pm 6.5 4.6 6.5 100 0.0 ESE 6 6 3 3 1014.1 - 0.0
12/06:50pm 6.5 4.5 6.4 99 0.0 SE 6 7 3 4 1014.0 - 0.0
12/06:40pm 6.5 4.4 6.5 100 0.0 SSE 7 9 4 5 1013.9 - 0.0
12/06:30pm 6.7 4.8 6.7 100 0.0 S 6 7 3 4 1013.8 - 0.0
12/06:20pm 6.7 4.8 6.7 100 0.0 SSW 6 11 3 6 1013.8 - 0.0
12/06:10pm 6.7 4.6 6.7 100 0.0 SSW 7 9 4 5 1013.8 - 0.0
12/06:00pm 6.9 4.9 6.9 100 0.0 SW 7 11 4 6 1013.8 - 0.0
12/05:50pm 6.7 4.8 6.7 100 0.0 S 6 7 3 4 1013.8 - 0.0
12/05:40pm 7.1 4.7 6.8 98 0.1 SSW 9 13 5 7 1013.6 - 0.0
12/05:30pm 7.7 4.1 6.8 94 0.4 SW 15 19 8 10 1013.4 - 0.0
12/05:20pm 7.5 5.0 6.7 95 0.4 WSW 9 13 5 7 1013.6 - 0.0
12/05:10pm 7.5 5.6 6.7 95 0.4 SSW 6 9 3 5 1013.6 - 0.0
12/05:00pm 7.8 6.2 6.4 91 0.7 SE 4 6 2 3 1013.5 - 0.0
12/04:50pm 8.2 4.3 6.9 91 0.6 SSW 17 32 9 17 1013.4 - 0.0
12/04:40pm 8.6 2.7 5.8 82 1.3 WSW 26 32 14 17 1013.5 - 0.0
12/04:30pm 7.6 3.6 6.6 93 0.5 W 17 22 9 12 1013.5 - 0.0
12/04:20pm 7.2 3.3 7.2 100 0.0 WNW 17 19 9 10 1013.5 - 0.0
12/04:10pm 6.9 - 7.0 100 - WNW 15 17 8 9 1013.4 - 0.0
12/04:00pm 6.7 2.3 6.7 100 0.0 WNW 19 19 10 10 1013.5 - 0.0
12/03:50pm 6.4 2.0 6.4 100 0.0 WNW 19 22 10 12 1013.5 - 0.0
12/03:40pm 6.3 1.3 6.3 100 0.0 WNW 22 24 12 13 1013.4 - 0.0
12/03:30pm 6.2 0.4 6.2 100 0.0 WNW 26 30 14 16 1013.4 - 0.0
12/03:20pm 6.2 0.4 6.2 100 0.0 WNW 26 26 14 14 1013.4 - 0.0
12/03:10pm 6.1 0.6 6.1 100 0.0 WNW 24 26 13 14 1013.5 - 0.0
12/03:00pm 6.1 1.0 6.1 100 0.0 WNW 22 26 12 14 1013.5 - 0.0
12/02:50pm 6.1 1.4 6.1 100 0.0 WNW 20 22 11 12 1013.5 - 0.0
12/02:40pm 6.1 1.4 6.1 100 0.0 WNW 20 22 11 12 1013.4 - 0.0
12/02:30pm 6.1 1.6 6.1 100 0.0 NW 19 20 10 11 1013.6 - 0.0
12/02:20pm 6.0 1.9 6.0 100 0.0 NW 17 19 9 10 1013.5 - 0.0
12/02:10pm 6.0 1.5 6.0 100 0.0 NW 19 20 10 11 1013.7 - 0.0
12/02:00pm 6.1 1.6 6.1 100 0.0 NW 19 20 10 11 1013.6 - 0.0
12/01:50pm 6.2 2.5 6.2 100 0.0 NW 15 17 8 9 1013.9 - 0.0
12/01:40pm 6.2 2.9 6.2 100 0.0 NW 13 15 7 8 1013.9 - 0.0
12/01:30pm 6.3 3.0 4.8 90 0.7 NNW 11 13 6 7 1013.9 - 0.0
12/01:20pm 6.7 2.0 -4.8 43 4.2 NNW 11 13 6 7 1013.9 - 0.0
12/01:10pm 6.6 - - - - NW 6 9 3 5 1013.8 - 0.0
12/01:00pm 6.1 - - - - W 6 9 3 5 1013.8 - 0.0
12/12:50pm 5.3 - - - - WNW 9 11 5 6 1013.9 - 0.0
12/12:40pm 5.2 - - - - WNW 9 11 5 6 1014.0 - 0.0
12/12:30pm 5.5 - - - - NNW 6 9 3 5 1014.3 - 0.0
12/12:20pm 5.2 - - - - E 2 6 1 3 1014.4 - 0.0
12/12:10pm 5.0 - - - - SSE 4 6 2 3 1014.4 - 0.0
12/12:00pm 4.8 - - - - SSW 4 7 2 4 1014.8 - 0.0
12/11:50am 4.8 - - - - ENE 6 9 3 5 1015.0 - 0.0
12/11:40am 4.5 - - - - NNW 7 11 4 6 1015.3 - 0.0
12/11:30am 4.2 - - - - N 15 22 8 12 1015.5 - 0.0
12/11:20am 4.1 - - - - ENE 11 15 6 8 1015.4 - 0.0
12/11:10am 3.9 - - - - SSE 7 9 4 5 1015.1 - 0.0
12/11:00am 3.7 - - - - SE 13 17 7 9 1015.4 - 0.0
12/10:50am 3.7 - - - - SE 6 11 3 6 1015.3 - 0.0
12/10:40am 3.6 - - - - SE 11 15 6 8 1016.0 - 0.0
12/10:30am 3.6 - - - - ESE 15 17 8 9 1015.6 - 0.0
12/10:20am 3.5 - - - - SE 15 17 8 9 1015.7 - 0.0
12/10:10am 3.0 - - - - SE 13 15 7 8 1015.7 - 0.0
12/10:00am 3.2 - - - - S 11 13 6 7 1015.9 - 0.0
12/09:50am 3.0 - - - - W 13 15 7 8 1016.3 - 0.0
12/09:40am 3.1 - - - - NW 6 11 3 6 1016.7 - 0.0
12/09:30am 3.1 - - - - NNW 7 9 4 5 1016.7 - 0.0
12/09:20am 3.0 - - - - NNE 7 13 4 7 1016.7 - 0.0
12/09:10am 2.9 - - - - ENE 6 9 3 5 1016.4 - 0.0
12/09:00am 2.8 - - - - SSE 4 7 2 4 1016.3 - 0.0
12/08:50am 2.6 - - - - SSE 9 11 5 6 1016.1 - 0.0
12/08:40am 2.6 - - - - S 7 11 4 6 1016.2 - 0.0
12/08:30am 2.6 - - - - SE 9 13 5 7 1016.5 - 0.0
12/08:20am 2.5 - - - - SSE 11 13 6 7 1015.9 - 0.0
12/08:10am 2.6 - - - - ESE 7 15 4 8 1016.3 - 0.0
12/08:00am 2.5 - - - - E 6 15 3 8 1016.7 - 0.0
12/07:50am 2.4 - - - - SSE 9 15 5 8 1016.2 - 0.0
12/07:40am 2.3 - - - - W 2 4 1 2 1016.6 - 0.0
12/07:30am 2.2 - - - - SE 9 11 5 6 1016.8 - 0.0
12/07:20am 2.2 - - - - ESE 9 11 5 6 1016.4 - 0.0
12/07:10am 2.2 - - - - SE 9 11 5 6 1016.4 - 0.0
12/07:00am 2.2 - - - - SE 6 7 3 4 1016.4 - 0.0
12/06:50am 2.2 - - - - SE 7 9 4 5 1016.4 - 0.0
12/06:40am 2.2 - - - - SSE 2 6 1 3 1016.4 - 0.0
12/06:30am 2.1 - - - - SE 7 11 4 6 1016.6 - 0.0
12/06:20am 2.1 - - - - SSE 9 11 5 6 1016.3 - 0.0
12/06:10am 2.2 - - - - SE 7 9 4 5 1016.2 - 0.0
12/06:00am 2.2 - - - - E 2 4 1 2 1016.3 - 0.0
12/05:50am 2.1 - - - - E 2 4 1 2 1016.3 - 0.0
12/05:40am 1.8 -2.2 -20.4 17 5.2 WSW 2 4 1 2 1016.3 - 0.0
12/05:30am 1.7 -2.8 -15.4 27 4.5 W 6 9 3 5 1016.1 - 0.0
12/05:20am 1.9 -3.1 -14.1 29 4.4 W 9 9 5 5 1016.5 - 0.0
12/05:10am 2.2 -2.8 -13.3 31 4.4 S 9 13 5 7 1016.3 - 0.0
12/05:00am 2.3 -3.3 -11.2 36 4.1 S 13 13 7 7 1015.9 - 0.0
12/04:50am 2.2 -3.3 -9.9 40 3.8 S 13 15 7 8 1015.8 - 0.0
12/04:40am 2.2 -3.6 -9.0 43 3.6 S 15 17 8 9 1015.9 - 0.0
12/04:30am 2.3 -3.5 -8.6 44 3.5 SSE 15 15 8 8 1016.0 - 0.0
12/04:20am 2.3 -2.6 -7.2 49 3.2 SSE 11 13 6 7 1016.2 - 0.0
12/04:10am 2.3 -1.8 -7.0 50 3.2 SE 7 11 4 6 1016.3 - 0.0
12/04:00am 2.2 -2.3 -6.9 51 3.1 SSE 9 13 5 7 1016.4 - 0.0
12/03:50am 2.3 -2.2 -6.8 51 3.1 S 9 11 5 6 1016.3 - 0.0
12/03:40am 2.5 -1.9 -6.1 53 3.0 SSE 9 11 5 6 1016.3 - 0.0
12/03:30am 2.8 -1.0 -5.4 55 2.8 S 6 7 3 4 1016.3 - 0.0
12/03:20am 2.8 -1.8 -4.4 59 2.5 SSE 11 15 6 8 1016.6 - 0.0
12/03:10am 2.8 -0.6 -1.9 71 1.7 S 6 9 3 5 1016.3 - 0.0
12/03:00am 2.6 0.1 -0.9 78 1.3 ESE 2 4 1 2 1016.7 - 0.0
12/02:50am 2.5 -0.9 -0.6 80 1.2 W 7 13 4 7 1016.8 - 0.0
12/02:40am 2.9 -0.8 -0.3 79 1.2 NW 9 13 5 7 1017.5 - 0.0
12/02:30am 3.1 0.4 0.1 81 1.2 SE 4 7 2 4 1017.4 - 0.0
12/02:20am 3.1 0.1 0.6 84 1.0 ESE 6 11 3 6 1017.1 - 0.0
12/02:10am 3.1 0.1 0.9 85 0.9 E 6 9 3 5 1017.5 - 0.0
12/02:00am 3.0 -1.3 1.0 87 0.8 SE 13 17 7 9 1017.2 - 0.0
12/01:50am 2.9 -0.6 1.1 88 0.7 SE 9 9 5 5 1016.9 - 0.0
12/01:40am 2.8 -0.7 1.0 88 0.7 SE 9 9 5 5 1016.9 - 0.0
12/01:30am 2.7 -0.8 1.0 88 0.7 ESE 9 11 5 6 1017.0 - 0.0
12/01:20am 2.7 -0.3 0.7 87 0.8 SSE 6 9 3 5 1016.9 - 0.0
12/01:10am 3.6 0.1 -1.6 69 2.0 W 7 7 4 4 1017.1 - 0.0
12/01:00am 4.0 0.3 -3.0 60 2.6 WNW 7 9 4 5 1017.4 - 0.0
12/12:50am 3.8 -0.5 -2.0 66 2.2 W 11 11 6 6 1017.5 - 0.0
12/12:40am 3.8 -0.8 -0.9 71 1.8 W 13 15 7 8 1017.5 - 0.0
12/12:30am 3.9 0.1 -0.4 73 1.7 WNW 9 15 5 8 1017.9 - 0.0
12/12:20am 3.9 1.5 -0.1 75 1.6 NNW 2 6 1 3 1018.1 - 0.0
12/12:10am 4.0 1.3 0.5 78 1.4 N 4 4 2 2 1018.0 - 0.0
12/12:00am 3.8 0.8 0.9 81 1.2 NW 6 7 3 4 1018.4 - 0.0
 
Date/Time
EST
Temp
°C
App
Temp
°C
Dew
Point
°C
Rel
Hum
%
Delta-T
°C
Wind Press
QNH
hPa
Press
MSL
hPa
Rain since
9am
mm
Dir  Spd
km/h
Gust
km/h
Spd
kts
Gust
kts
11/11:50pm 3.9 0.8 1.2 82 1.1 WNW 7 9 4 5 1018.4 - 0.0
11/11:40pm 3.8 -0.1 1.4 84 1.0 NW 11 11 6 6 1018.5 - 0.0
11/11:30pm 3.9 0.8 1.6 85 0.9 WNW 7 11 4 6 1018.7 - 0.0
11/11:20pm 3.8 1.7 1.6 85 0.9 WSW 2 6 1 3 1018.6 - 0.0
11/11:10pm 3.9 1.8 1.6 85 0.9 NE 2 6 1 3 1018.7 - 0.0
11/11:00pm 4.1 1.3 1.8 85 1.0 W 6 9 3 5 1018.9 - 0.0
11/10:50pm 3.9 0.5 1.6 85 0.9 S 9 11 5 6 1018.7 - 0.0
11/10:40pm 4.3 2.2 2.0 85 1.0 SW 2 7 1 4 1018.8 - 0.0
11/10:30pm 4.4 2.0 2.0 84 1.0 WSW 4 6 2 3 1019.3 - 0.0
11/10:20pm 4.5 2.1 2.1 84 1.0 SSW 4 6 2 3 1019.1 - 0.0
11/10:10pm 4.4 1.6 2.2 86 0.9 S 6 6 3 3 1019.2 - 0.0
11/10:00pm 4.4 1.4 2.2 86 0.9 S 7 7 4 4 1019.3 - 0.0
11/09:50pm 4.4 1.4 2.3 86 0.9 S 7 9 4 5 1019.3 - 0.0
11/09:40pm 4.3 1.4 2.5 88 0.8 S 7 7 4 4 1019.3 - 0.0
11/09:30pm 4.2 0.6 3.0 92 0.5 S 11 11 6 6 1019.2 - 0.0
11/09:20pm 4.6 2.0 4.3 98 0.1 S 7 11 4 6 1019.1 - 0.0
11/09:10pm 5.1 4.0 5.1 100 0.0 CALM 0 2 0 1 1019.4 - 0.0
11/09:00pm 5.2 3.3 4.9 98 0.1 NW 4 6 2 3 1019.3 - 0.0
11/08:50pm 5.1 2.6 4.5 96 0.3 NNW 7 7 4 4 1019.5 - 0.0
11/08:40pm 5.0 2.4 4.4 96 0.3 NW 7 9 4 5 1019.6 - 0.0
11/08:30pm 5.1 2.5 4.2 94 0.4 NW 7 9 4 5 1019.6 - 0.0
11/08:20pm 5.0 1.6 4.0 93 0.4 NW 11 15 6 8 1019.7 - 0.0
11/08:10pm 5.1 0.5 3.8 91 0.6 NW 17 19 9 10 1019.9 - 0.0
11/08:00pm 5.1 1.1 3.0 86 0.9 WNW 13 15 7 8 1019.8 - 0.0
11/07:50pm 5.0 1.3 2.2 82 1.2 WNW 11 13 6 7 1019.6 - 0.0
11/07:40pm 4.9 0.4 2.2 83 1.1 NW 15 17 8 9 1019.7 - 0.0
11/07:30pm 4.9 0.0 2.2 83 1.1 NW 17 19 9 10 1019.6 - 0.0
11/07:20pm 4.9 0.1 2.4 84 1.1 NW 17 19 9 10 1019.8 - 0.0
11/07:10pm 4.9 -0.3 2.5 84 1.0 NW 19 20 10 11 1019.6 - 0.0
11/07:00pm 5.0 1.8 2.8 86 0.9 NW 9 11 5 6 1019.6 - 0.0
11/06:50pm 5.0 1.8 3.1 87 0.8 WNW 9 11 5 6 1019.4 - 0.0
11/06:40pm 5.1 1.6 3.3 88 0.8 NW 11 11 6 6 1019.6 - 0.0
11/06:30pm 5.2 2.0 3.3 87 0.8 NW 9 11 5 6 1019.7 - 0.0
11/06:20pm 5.3 2.6 3.5 88 0.8 NNW 7 9 4 5 1019.7 - 0.0
11/06:10pm 5.5 3.4 3.7 88 0.8 NNW 4 6 2 3 1019.5 - 0.0
11/06:00pm 5.5 3.4 3.8 89 0.8 N 4 6 2 3 1019.5 - 0.0
11/05:50pm 5.5 2.9 3.4 86 0.9 NNE 6 9 3 5 1019.3 - 0.0
11/05:40pm 5.5 3.1 2.4 80 1.3 NNE 4 9 2 5 1019.6 - 0.0
11/05:30pm 5.5 1.8 -4.3 49 3.5 SSE 6 9 3 5 1019.1 - 0.0
11/05:20pm 5.5 - - - - SSE 7 9 4 5 1019.2 - 0.0
11/05:10pm 5.5 - - - - SE 9 13 5 7 1019.0 - 0.0
11/05:00pm 5.5 - - - - ESE 7 11 4 6 1018.8 - 0.0
11/04:50pm 5.6 - - - - ESE 7 13 4 7 1018.7 - 0.0
11/04:40pm 5.6 - - - - SSW 6 7 3 4 1019.0 - 0.0
11/04:30pm 5.5 - - - - W 6 6 3 3 1019.1 - 0.0
11/04:20pm 5.6 - - - - NW 2 7 1 4 1019.1 - 0.0
11/04:10pm 5.6 - - - - E 6 7 3 4 1019.1 - 0.0
11/04:00pm 5.7 - - - - NE 6 6 3 3 1019.3 - 0.0
11/03:50pm 5.6 - - - - N 6 9 3 5 1019.6 - 0.0
11/03:40pm 5.6 - - - - N 7 9 4 5 1019.9 - 0.0
11/03:30pm 5.6 - - - - NNW 7 11 4 6 1019.9 - 0.0
11/03:20pm 5.5 - - - - NNW 11 15 6 8 1019.8 - 0.0
11/03:10pm 5.7 - - - - NNW 11 15 6 8 1019.9 - 0.0
11/03:00pm 5.7 - - - - NNW 7 9 4 5 1020.0 - 0.0
11/02:50pm 5.5 - - - - NNW 11 13 6 7 1020.0 - 0.0
11/02:40pm 5.6 - - - - N 11 11 6 6 1019.9 - 0.0
11/02:30pm 5.6 - - - - NNE 9 11 5 6 1019.8 - 0.0
11/02:20pm 5.6 - - - - N 11 15 6 8 1019.9 - 0.0
11/02:10pm 5.8 - - - - N 13 15 7 8 1020.2 - 0.0
11/02:00pm 5.6 - - - - N 15 15 8 8 1020.1 - 0.0
11/01:50pm 5.6 - - - - NNW 13 15 7 8 1020.4 - 0.0
11/01:40pm 5.7 - - - - NNW 11 15 6 8 1020.6 - 0.0
11/01:30pm 5.5 - - - - NNW 13 15 7 8 1020.6 - 0.0
11/01:20pm 5.4 - - - - NNW 13 15 7 8 1020.8 - 0.0
11/01:10pm 5.3 - - - - NNW 9 11 5 6 1020.7 - 0.0
11/01:00pm 5.1 - - - - NNW 7 9 4 5 1020.8 - 0.0
11/12:50pm 5.0 - - - - NW 11 13 6 7 1021.0 - 0.0
11/12:40pm 5.0 - - - - NW 7 9 4 5 1021.1 - 0.0
11/12:30pm 4.8 - - - - NNW 9 11 5 6 1021.2 - 0.0
11/12:20pm 4.9 - - - - NW 11 13 6 7 1021.2 - 0.0
11/12:10pm 5.0 - - - - NW 7 9 4 5 1021.4 - 0.0
11/12:00pm 4.9 - - - - W 4 6 2 3 1021.5 - 0.0
11/11:50am 4.9 - - - - W 4 7 2 4 1021.6 - 0.0
11/11:40am 4.7 - - - - NW 6 7 3 4 1021.9 - 0.0
11/11:30am 4.7 - - - - WNW 7 9 4 5 1022.2 - 0.0
11/11:20am 4.7 - - - - W 7 9 4 5 1022.5 - 0.0
11/11:10am 4.3 - - - - W 7 9 4 5 1022.6 - 0.0
11/11:00am 4.5 - - - - W 9 11 5 6 1022.8 - 0.0
11/10:50am 4.2 - - - - W 13 13 7 7 1023.0 - 0.0
11/10:40am 4.0 - - - - W 17 19 9 10 1023.1 - 0.0
11/10:30am 3.8 - - - - WNW 17 19 9 10 1023.2 - 0.0
11/10:20am 3.7 - - - - WNW 17 17 9 9 1023.4 - 0.0
11/10:10am 3.7 - - - - WNW 17 19 9 10 1023.4 - 0.0
11/10:00am 3.6 - - - - WNW 19 20 10 11 1023.4 - 0.0
11/09:50am 3.5 - - - - WNW 19 22 10 12 1023.5 - 0.0
11/09:40am 3.6 - - - - NW 17 20 9 11 1023.5 - 0.0
11/09:30am 3.3 - - - - WNW 20 22 11 12 1023.6 - 0.0
11/09:20am 3.3 - - - - WNW 20 22 11 12 1023.6 - 0.0
11/09:10am 3.3 - - - - NW 20 22 11 12 1023.7 - 0.0
11/09:00am 3.4 - - - - NW 19 22 10 12 1023.6 - 0.6
11/08:50am 3.3 - - - - NW 19 22 10 12 1023.6 - 0.6
11/08:40am 3.3 - - - - NW 15 19 8 10 1023.7 - 0.6
11/08:30am 3.4 - - - - NW 9 11 5 6 1023.5 - 0.6
11/08:20am 3.4 - - - - NNW 9 13 5 7 1023.5 - 0.6
11/08:10am 3.2 - - - - NW 11 15 6 8 1023.5 - 0.6
11/08:00am 3.1 - - - - WNW 13 15 7 8 1023.6 - 0.6
11/07:50am 2.7 - - - - WNW 17 19 9 10 1023.5 - 0.6
11/07:40am 2.6 - - - - WNW 13 15 7 8 1023.6 - 0.6
11/07:30am 2.5 - - - - WNW 13 15 7 8 1023.6 - 0.6
11/07:20am 2.4 - - - - NW 11 13 6 7 1023.5 - 0.6
11/07:10am 2.4 - - - - WNW 19 20 10 11 1023.4 - 0.6
11/07:00am 2.7 - - - - WNW 15 19 8 10 1023.5 - 0.6
11/06:50am 2.7 - - - - NW 9 11 5 6 1023.2 - 0.6
11/06:40am 2.8 - - - - NW 7 11 4 6 1023.3 - 0.6
11/06:30am 2.9 -1.7 -16.8 22 5.2 WNW 6 7 3 4 1023.2 - 0.6
11/06:20am 2.8 -0.2 -9.9 38 4.0 CALM 0 2 0 1 1023.1 - 0.6
11/06:10am 2.8 -1.0 -9.2 41 3.9 S 4 7 2 4 1022.8 - 0.6
11/06:00am 2.8 -1.9 -8.7 42 3.8 S 9 11 5 6 1022.8 - 0.6
11/05:50am 2.8 -2.1 -6.7 49 3.3 S 11 13 6 7 1022.4 - 0.6
11/05:40am 2.8 -1.6 -5.8 53 3.1 S 9 11 5 6 1022.3 - 0.6
11/05:30am 2.9 -1.3 -3.9 61 2.4 S 9 9 5 5 1022.4 - 0.6
11/05:20am 2.9 -0.9 -4.1 60 2.5 S 7 9 4 5 1022.5 - 0.6
11/05:10am 2.9 -1.3 -4.1 60 2.5 S 9 9 5 5 1022.4 - 0.6
11/05:00am 2.9 -1.2 -2.9 65 2.1 SSE 9 9 5 5 1022.4 - 0.6
11/04:50am 2.8 -0.8 -2.2 69 1.8 SSE 7 7 4 4 1022.5 - 0.6
11/04:40am 2.7 -1.2 -1.6 73 1.6 SSE 9 9 5 5 1022.3 - 0.6
11/04:30am 2.7 -1.0 -0.3 80 1.2 SSE 9 9 5 5 1022.2 - 0.6
11/04:20am 2.7 -1.0 0.0 82 1.1 S 9 11 5 6 1022.3 - 0.6
11/04:10am 2.9 -0.4 0.3 83 1.0 S 7 7 4 4 1022.3 - 0.6
11/04:00am 3.3 0.3 0.6 82 1.1 S 6 7 3 4 1022.5 - 0.6
11/03:50am 3.7 1.1 1.1 83 1.1 SSE 4 6 2 3 1022.4 - 0.6
11/03:40am 3.8 0.9 1.6 85 0.9 WNW 6 9 3 5 1022.3 - 0.6
11/03:30am 3.9 0.5 1.9 87 0.8 WNW 9 9 5 5 1022.3 - 0.6
11/03:20am 4.1 0.8 2.5 89 0.7 W 9 9 5 5 1022.3 - 0.6
11/03:10am 4.2 1.3 2.6 89 0.7 W 7 11 4 6 1022.2 - 0.6
11/03:00am 3.9 0.6 2.5 91 0.6 W 9 11 5 6 1022.3 - 0.6
11/02:50am 4.0 0.0 2.7 91 0.6 WNW 13 19 7 10 1022.4 - 0.6
11/02:40am 4.1 -1.6 2.7 91 0.6 WNW 22 24 12 13 1022.4 - 0.6
11/02:30am 4.1 -2.0 2.8 91 0.6 WNW 24 24 13 13 1022.7 - 0.6
11/02:20am 4.2 -1.5 2.9 91 0.6 WNW 22 22 12 12 1022.9 - 0.6
11/02:10am 4.3 -1.4 3.0 91 0.6 WNW 22 26 12 14 1023.1 - 0.6
11/02:00am 4.2 -1.8 3.3 94 0.4 NW 24 24 13 13 1023.2 - 0.6
11/01:50am 4.5 -1.0 4.2 98 0.1 WNW 22 24 12 13 1023.2 - 0.6
11/01:40am 5.0 0.1 4.1 94 0.4 W 19 20 10 11 1023.0 - 0.6
11/01:30am 4.7 0.1 3.8 94 0.4 WNW 17 19 9 10 1023.1 - 0.6
11/01:20am 4.8 0.7 4.2 96 0.3 WNW 15 17 8 9 1023.1 - 0.6
11/01:10am 4.9 0.5 4.8 99 0.0 WNW 17 19 9 10 1023.0 - 0.6
11/01:00am 5.1 1.9 5.1 100 0.0 NW 11 15 6 8 1023.1 - 0.6
11/12:50am 5.4 2.3 5.4 100 0.0 WNW 11 13 6 7 1023.1 - 0.6
11/12:40am 5.4 2.3 5.4 100 0.0 WNW 11 13 6 7 1023.0 - 0.6
11/12:30am 5.3 2.1 5.3 100 0.0 NW 11 11 6 6 1023.2 - 0.6
11/12:20am 5.4 2.3 5.4 100 0.0 NW 11 15 6 8 1023.3 - 0.6
11/12:10am 5.4 2.2 5.0 97 0.2 NW 11 13 6 7 1023.5 - 0.6
11/12:00am 5.5 2.7 5.0 97 0.2 NW 9 11 5 6 1023.6 - 0.6
 
Date/Time
EST
Temp
°C
App
Temp
°C
Dew
Point
°C
Rel
Hum
%
Delta-T
°C
Wind Press
QNH
hPa
Press
MSL
hPa
Rain since
9am
mm
Dir  Spd
km/h
Gust
km/h
Spd
kts
Gust
kts
10/11:50pm 5.6 2.5 5.4 99 0.1 NW 11 13 6 7 1023.7 - 0.6
10/11:40pm 5.7 2.6 5.7 100 0.0 WNW 11 17 6 9 1023.9 - 0.6
10/11:30pm 5.9 -0.4 5.9 100 0.0 WNW 28 33 15 18 1023.8 - 0.6
10/11:20pm 6.1 -2.2 6.1 100 0.0 W 39 43 21 23 1023.8 - 0.6
10/11:10pm 6.0 -1.6 6.0 100 0.0 WNW 35 37 19 20 1024.1 - 0.4
10/11:00pm 6.0 -1.0 6.0 100 0.0 WNW 32 35 17 19 1024.2 - 0.4
10/10:50pm 6.1 -1.1 5.7 97 0.2 W 33 37 18 20 1024.4 - 0.4
10/10:40pm 5.9 -1.5 4.1 88 0.8 WNW 32 33 17 18 1024.3 - 0.4
10/10:30pm 5.9 -1.4 2.6 79 1.4 WNW 30 33 16 18 1024.3 - 0.4
10/10:20pm 6.0 -2.6 -4.3 47 3.7 WNW 32 35 17 19 1024.2 - 0.4
10/10:10pm 5.9 -3.3 -8.4 35 4.7 WNW 33 37 18 20 1024.1 - 0.4
10/10:00pm 5.8 -3.1 -7.0 39 4.3 WNW 32 33 17 18 1024.2 - 0.4
10/09:50pm 5.8 -1.4 -5.4 44 3.9 WNW 24 28 13 15 1024.1 - 0.4
10/09:40pm 5.8 -1.3 -4.7 47 3.8 WNW 24 24 13 13 1023.9 - 0.4
10/09:30pm 5.9 -1.4 -5.9 42 4.1 WNW 24 26 13 14 1023.8 - 0.4
10/09:20pm 6.0 -1.1 -8.1 35 4.7 WNW 22 24 12 13 1023.6 - 0.4
10/09:10pm 6.1 -1.2 -10.8 28 5.2 WNW 22 24 12 13 1023.6 - 0.4
10/09:00pm 6.1 -1.4 -13.4 23 5.7 WNW 22 24 12 13 1023.5 - 0.4
10/08:50pm 6.2 -1.1 -17.4 16 6.6 WNW 20 22 11 12 1023.4 - 0.4
10/08:40pm 6.3 -1.4 -19.2 14 6.8 WNW 22 24 12 13 1023.5 - 0.4
10/08:30pm 6.4 -1.7 -19.2 14 6.9 WNW 24 26 13 14 1023.5 - 0.4
10/08:20pm 6.5 -1.6 -18.7 14 6.5 WNW 24 26 13 14 1023.4 - 0.4
10/08:10pm 6.6 -0.3 -13.7 22 5.9 WNW 19 22 10 12 1023.6 - 0.4
10/08:00pm 6.7 -0.1 -11.9 25 5.6 WNW 19 20 10 11 1023.7 - 0.4
10/07:50pm 6.8 0.3 -8.4 33 5.0 NW 19 22 10 12 1023.6 - 0.4
10/07:40pm 6.9 0.9 -6.2 38 4.6 NW 17 20 9 11 1023.7 - 0.4
10/07:30pm 7.0 1.7 -0.8 57 3.1 NW 17 17 9 9 1023.6 - 0.4
10/07:20pm 7.1 2.5 1.8 69 2.3 NW 15 17 8 9 1023.6 - 0.4
10/07:10pm 7.1 2.4 3.2 76 1.7 NW 17 19 9 10 1023.4 - 0.4
10/07:00pm 7.2 2.6 3.6 78 1.6 NW 17 20 9 11 1023.4 - 0.4
10/06:50pm 7.2 2.6 3.8 79 1.5 NNW 17 19 9 10 1023.2 - 0.2
10/06:40pm 7.2 3.0 3.8 79 1.5 NNW 15 17 8 9 1023.4 - 0.2
10/06:30pm 7.2 3.0 3.9 79 1.5 NNW 15 17 8 9 1023.3 - 0.2
10/06:20pm 7.2 3.0 3.9 79 1.5 NW 15 17 8 9 1023.2 - 0.2
10/06:10pm 7.2 3.0 3.9 79 1.5 NW 15 17 8 9 1023.1 - 0.2
10/06:00pm 7.2 3.0 3.8 79 1.5 NW 15 17 8 9 1023.1 - 0.2
10/05:50pm 7.2 3.0 3.8 79 1.5 NW 15 15 8 8 1023.0 - 0.2
10/05:40pm 7.2 3.0 4.0 80 1.4 NW 15 17 8 9 1022.9 - 0.2
10/05:30pm 7.2 2.7 4.2 81 1.4 NW 17 20 9 11 1022.7 - 0.2
10/05:20pm 7.3 3.2 4.3 81 1.4 NW 15 17 8 9 1022.7 - 0.2
10/05:10pm 7.3 2.8 4.3 81 1.4 NW 17 19 9 10 1022.7 - 0.0
10/05:00pm 7.4 3.3 4.4 81 1.4 NW 15 19 8 10 1022.6 - 0.0
10/04:50pm 7.3 2.9 4.5 82 1.3 NW 17 19 9 10 1022.5 - 0.0
10/04:40pm 7.3 2.9 4.7 83 1.2 NNW 17 19 9 10 1022.2 - 0.0
10/04:30pm 7.4 3.0 5.0 85 1.1 NNW 17 19 9 10 1022.1 - 0.0
10/04:20pm 7.4 3.2 5.8 90 0.8 NW 17 19 9 10 1022.0 - 0.0
10/04:10pm 7.6 4.1 7.3 98 0.1 NW 15 19 8 10 1022.1 - 0.0
10/04:00pm 7.7 3.6 7.7 100 0.0 NW 19 20 10 11 1022.0 - 0.0
10/03:50pm 7.9 3.8 7.9 100 0.0 NW 19 20 10 11 1021.8 - 0.0
10/03:40pm 7.8 3.7 7.8 100 0.0 WNW 19 24 10 13 1021.9 - 0.0
10/03:30pm 7.8 3.7 7.8 100 0.0 WNW 19 20 10 11 1021.9 - 0.0
10/03:20pm 7.9 3.6 7.9 100 0.0 WNW 20 24 11 13 1021.8 - 0.0
10/03:10pm 7.8 3.5 7.8 100 0.0 WNW 20 22 11 12 1021.7 - 0.0
10/03:00pm 7.8 3.5 7.8 100 0.0 WNW 20 26 11 14 1021.7 - 0.0
10/02:50pm 7.9 3.2 7.9 100 0.0 WNW 22 24 12 13 1021.6 - 0.0
10/02:40pm 8.0 3.0 8.0 100 0.0 WNW 24 26 13 14 1021.7 - 0.0
10/02:30pm 8.0 3.7 8.0 100 0.0 WNW 20 24 11 13 1021.6 - 0.0
10/02:20pm 8.0 3.4 8.0 100 0.0 WNW 22 28 12 15 1021.6 - 0.0
10/02:10pm 8.0 3.0 8.0 100 0.0 WNW 24 28 13 15 1021.4 - 0.0
10/02:00pm 8.0 3.0 8.0 100 0.0 WNW 24 28 13 15 1021.5 - 0.0
10/01:50pm 7.9 2.9 7.9 100 0.0 WNW 24 28 13 15 1021.5 - 0.0
10/01:40pm 7.8 2.4 7.8 100 0.0 WNW 26 28 14 15 1021.4 - 0.0
10/01:30pm 7.7 2.2 7.7 100 0.0 WNW 26 30 14 16 1021.5 - 0.0
10/01:20pm 7.9 3.6 7.9 100 0.0 WNW 20 26 11 14 1021.4 - 0.0
10/01:10pm 7.8 3.9 7.2 96 0.3 NW 17 19 9 10 1021.4 - 0.0
10/01:00pm 7.6 3.1 6.3 91 0.6 NW 19 22 10 12 1021.4 - 0.0
10/12:50pm 7.7 3.8 7.1 96 0.3 NW 17 19 9 10 1021.5 - 0.0
10/12:40pm 7.7 3.8 7.2 97 0.2 NW 17 19 9 10 1021.7 - 0.0
10/12:30pm 7.6 2.6 6.4 92 0.6 WNW 22 26 12 14 1021.7 - 0.0
10/12:20pm 7.6 2.0 3.3 74 1.9 WNW 22 24 12 13 1021.9 - 0.0
10/12:10pm 7.6 2.4 3.5 75 1.8 NW 20 22 11 12 1021.9 - 0.0
10/12:00pm 7.5 2.0 4.1 79 1.5 NW 22 26 12 14 1022.0 - 0.0
10/11:50am 7.6 2.7 5.1 84 1.2 NW 20 24 11 13 1022.1 - 0.0
10/11:40am 7.9 3.3 6.7 92 0.6 NW 20 22 11 12 1022.1 - 0.0
10/11:30am 8.1 3.5 8.1 100 0.0 WNW 22 24 12 13 1022.4 - 0.0
10/11:20am 8.0 3.0 8.0 100 0.0 WNW 24 26 13 14 1022.5 - 0.0
10/11:10am 8.1 4.1 8.1 100 0.0 WNW 19 24 10 13 1022.5 - 0.0
10/11:00am 8.2 3.6 8.2 100 0.0 WNW 22 24 12 13 1022.6 - 0.0
10/10:50am 8.2 3.6 8.2 100 0.0 WNW 22 26 12 14 1022.6 - 0.0
10/10:40am 8.2 4.0 8.2 100 0.0 WNW 20 24 11 13 1022.7 - 0.0
10/10:30am 8.1 3.8 8.0 99 0.0 WNW 20 22 11 12 1022.6 - 0.0
10/10:20am 7.9 - - - - NW 22 26 12 14 1022.7 - 0.0
10/10:10am 7.7 - - - - WNW 26 28 14 15 1022.6 - 0.0
10/10:00am 7.7 - - - - WNW 20 26 11 14 1022.6 - 0.0
10/09:50am 7.4 - - - - WNW 28 30 15 16 1022.3 - 0.0
10/09:40am 7.3 - - - - WNW 26 30 14 16 1022.3 - 0.0
10/09:30am 7.2 - - - - WNW 24 26 13 14 1022.5 - 0.0
10/09:20am 7.1 - - - - WNW 26 32 14 17 1022.5 - 0.0
10/09:10am 7.1 - - - - WNW 30 33 16 18 1022.4 - 0.0
10/09:00am 7.1 - - - - WNW 26 30 14 16 1022.3 - 2.6
10/08:50am 7.1 - - - - WNW 26 30 14 16 1022.1 - 2.6
10/08:40am 7.2 - - - - WNW 24 24 13 13 1022.1 - 2.6
10/08:30am 7.1 - - - - WNW 22 24 12 13 1022.0 - 2.6
10/08:20am 7.1 - - - - WNW 22 26 12 14 1021.9 - 2.6
10/08:10am 7.1 - - - - WNW 26 28 14 15 1021.7 - 2.6
10/08:00am 7.1 - - - - WNW 26 28 14 15 1021.6 - 2.6
10/07:50am 7.1 - - - - WNW 26 28 14 15 1021.5 - 2.6
10/07:40am 7.1 - - - - WNW 26 30 14 16 1021.4 - 2.6
10/07:30am 7.2 - - - - WNW 28 30 15 16 1021.2 - 2.6
10/07:20am 7.3 - - - - WNW 24 26 13 14 1021.2 - 2.4
10/07:10am 7.3 - - - - WNW 22 26 12 14 1021.1 - 2.4
10/07:00am 7.4 - - - - WNW 20 22 11 12 1021.1 - 2.4
10/06:50am 7.4 - - - - NW 20 26 11 14 1021.0 - 2.4
10/06:40am 7.4 - - - - NW 19 20 10 11 1020.8 - 2.4
10/06:30am 7.5 - - - - NW 17 19 9 10 1020.8 - 2.4
10/06:20am 7.5 - - - - NW 15 19 8 10 1020.8 - 2.4
10/06:10am 7.6 - - - - NW 17 19 9 10 1020.7 - 2.4
10/06:00am 7.6 - - - - NW 15 17 8 9 1020.7 - 2.4
10/05:50am 7.6 - - - - NW 15 17 8 9 1020.6 - 2.4
10/05:40am 7.6 - - - - NW 17 19 9 10 1020.5 - 2.4
10/05:30am 7.6 - - - - NW 13 17 7 9 1020.6 - 2.4
10/05:20am 7.6 - - - - NW 15 17 8 9 1020.6 - 2.4
10/05:10am 7.6 - - - - NW 15 17 8 9 1020.6 - 2.4
10/05:00am 7.6 - - - - NW 15 17 8 9 1020.6 - 2.4
10/04:50am 7.6 - - - - NW 15 19 8 10 1020.7 - 2.4
10/04:40am 7.6 - - - - NW 17 19 9 10 1020.6 - 2.4
10/04:30am 7.7 - - - - NW 15 17 8 9 1020.6 - 2.4
10/04:20am 7.7 - - - - NW 15 17 8 9 1020.5 - 2.4
10/04:10am 7.7 - - - - NW 15 17 8 9 1020.5 - 2.4
10/04:00am 7.7 - - - - NW 15 17 8 9 1020.5 - 2.4
10/03:50am 7.7 - - - - NW 17 19 9 10 1020.5 - 2.4
10/03:40am 7.7 - - - - NW 17 19 9 10 1020.6 - 2.4
10/03:30am 7.6 - - - - NW 17 19 9 10 1020.6 - 2.4
10/03:20am 7.6 - - - - NW 17 19 9 10 1020.6 - 2.4
10/03:10am 7.6 - - - - NNW 17 19 9 10 1020.6 - 2.4
10/03:00am 7.7 - - - - NNW 15 15 8 8 1020.5 - 2.4
10/02:50am 7.7 - - - - NNW 17 19 9 10 1020.6 - 2.4
10/02:40am 7.7 - - - - NNW 19 20 10 11 1020.6 - 2.4
10/02:30am 7.8 - - - - NNW 22 24 12 13 1020.5 - 2.4
10/02:20am 7.8 - - - - NNW 19 22 10 12 1020.5 - 2.4
10/02:10am 7.8 - - - - NNW 19 20 10 11 1020.6 - 2.4
10/02:00am 7.8 - - - - NW 20 22 11 12 1020.7 - 2.2
10/01:50am 7.8 - - - - NNW 22 24 12 13 1020.7 - 2.2
10/01:40am 7.8 - - - - NNW 22 24 12 13 1020.8 - 2.2
10/01:30am 7.8 - - - - NNW 24 24 13 13 1020.7 - 2.0
10/01:20am 7.9 - - - - NNW 24 28 13 15 1020.6 - 2.0
10/01:10am 7.9 - - - - NNW 24 26 13 14 1020.5 - 2.0
10/01:00am 7.9 - - - - NNW 26 28 14 15 1020.6 - 2.0
10/12:50am 7.9 - - - - NNW 24 26 13 14 1020.5 - 2.0
10/12:40am 8.0 - - - - NNW 22 26 12 14 1020.4 - 2.0
10/12:30am 8.0 - - - - NW 20 22 11 12 1020.5 - 1.8
10/12:20am 8.0 - - - - NNW 20 24 11 13 1020.5 - 1.8
10/12:10am 8.0 - - - - NNW 22 24 12 13 1020.5 - 1.8
10/12:00am 8.0 - - - - NNW 24 26 13 14 1020.6 - 1.8
 
Date/Time
EST
Temp
°C
App
Temp
°C
Dew
Point
°C
Rel
Hum
%
Delta-T
°C
Wind Press
QNH
hPa
Press
MSL
hPa
Rain since
9am
mm
Dir  Spd
km/h
Gust
km/h
Spd
kts
Gust
kts
09/11:50pm 8.0 - - - - NW 20 22 11 12 1020.5 - 1.6
09/11:40pm 8.0 - - - - NW 20 24 11 13 1020.7 - 1.6
09/11:30pm 8.0 - - - - NW 20 22 11 12 1020.8 - 1.6
09/11:20pm 8.0 - - - - WNW 20 24 11 13 1020.8 - 1.6
09/11:10pm 8.0 - - - - WNW 22 26 12 14 1020.9 - 1.6
09/11:00pm 8.0 - - - - NW 22 24 12 13 1020.7 - 1.6
09/10:50pm 8.0 - - - - NW 22 22 12 12 1020.8 - 1.6
09/10:40pm 8.0 - - - - NW 20 22 11 12 1020.9 - 1.6
09/10:30pm 8.0 - - - - NW 20 24 11 13 1020.8 - 1.6
09/10:20pm 8.1 - - - - NW 20 22 11 12 1020.9 - 1.6
09/10:10pm 8.1 - - - - NW 20 22 11 12 1020.9 - 1.6
09/10:00pm 8.1 - - - - NW 20 24 11 13 1020.9 - 1.6
09/09:50pm 8.1 - - - - NW 22 24 12 13 1020.9 - 1.6
09/09:40pm 8.1 - - - - NW 24 26 13 14 1021.0 - 1.6
09/09:30pm 8.1 - - - - NW 22 24 12 13 1021.0 - 1.6
09/09:20pm 8.1 - - - - NW 19 20 10 11 1021.0 - 1.6
09/09:10pm 8.1 - - - - NW 20 22 11 12 1020.9 - 1.6
09/09:00pm 8.1 - - - - NW 19 20 10 11 1020.9 - 1.6
09/08:50pm 8.2 - - - - NW 17 19 9 10 1021.0 - 1.6
09/08:40pm 8.3 - - - - NW 17 19 9 10 1021.0 - 1.6
09/08:30pm 8.3 - - - - NW 17 19 9 10 1021.0 - 1.6

Latest Capital City Observations: Canberra | Sydney | Melbourne | Brisbane | Adelaide | Perth | Hobart | Darwin

Other formats

Comma delimited format used in spreadsheet applications
http://www.bom.gov.au/fwo/IDN60903/IDN60903.99763.axf

JavaScript Object Notation format (JSON) in row-major order
http://www.bom.gov.au/fwo/IDN60903/IDN60903.99763.json

Data quality

Most of these data are generated automatically and are frequently updated. Quality checks on data are not normally performed. It is possible for incorrect values to appear. Refer to information at About Latest Weather Observations and please check the disclaimer before using these data.